EWG96D HEGN-EDDL
Flight info
| Callsign | EWG96D |
|---|---|
| Flight time | N/A |
| Altitude | 34000 |
| Route | BOTIX1B BOTIX V608 NABED T55 KUNKI P751 METRU DCT DIMIS DCT VRANA DCT NIVES DCT GORPA DCT SIMBA DCT TESDU DCT AMETU T852 TINSA T854 DOMUX DOMUX1A |
| Aircraft | A319/M-SDE3FGHIRWY/LB1 |
Departure
| Time | 2026-05-04 14:04 |
|---|---|
| Airport | Hurghada International Airport (HEGN) |
Arrival
| Time | N/A |
|---|---|
| Airport | Düsseldorf Airport (EDDL) |
| Time | Latitude | Longitude | Altitude | Speed | Heading |
|---|---|---|---|---|---|
| 2026-05-04 13:12 | 27.17852 | 33.80651 | 58 ft | 0 kts | 75° |
| 2026-05-04 13:54 | 27.17850 | 33.80640 | 58 ft | 4 kts | 77° |
| 2026-05-04 13:55 | 27.17845 | 33.80611 | 54 ft | 4 kts | 85° |
| 2026-05-04 13:55 | 27.17849 | 33.80551 | 58 ft | 4 kts | 109° |
| 2026-05-04 13:55 | 27.17861 | 33.80525 | 55 ft | 4 kts | 138° |
| 2026-05-04 13:56 | 27.17874 | 33.80515 | 58 ft | 0 kts | 165° |
| 2026-05-04 13:58 | 27.17868 | 33.80517 | 58 ft | 2 kts | 165° |
| 2026-05-04 13:58 | 27.17818 | 33.80533 | 52 ft | 5 kts | 164° |
| 2026-05-04 13:58 | 27.17778 | 33.80546 | 55 ft | 7 kts | 164° |
| 2026-05-04 13:59 | 27.17728 | 33.80561 | 54 ft | 8 kts | 165° |
| 2026-05-04 13:59 | 27.17670 | 33.80578 | 55 ft | 9 kts | 165° |
| 2026-05-04 13:59 | 27.17532 | 33.80616 | 56 ft | 11 kts | 176° |
| 2026-05-04 14:00 | 27.17481 | 33.80560 | 58 ft | 11 kts | 252° |
| 2026-05-04 14:00 | 27.17387 | 33.80409 | 48 ft | 17 kts | 165° |
| 2026-05-04 14:00 | 27.17277 | 33.80443 | 49 ft | 17 kts | 165° |
| 2026-05-04 14:01 | 27.17160 | 33.80476 | 49 ft | 17 kts | 165° |
| 2026-05-04 14:01 | 27.17046 | 33.80510 | 50 ft | 16 kts | 165° |
| 2026-05-04 14:01 | 27.16825 | 33.80576 | 48 ft | 18 kts | 165° |
| 2026-05-04 14:02 | 27.16705 | 33.80612 | 46 ft | 18 kts | 165° |
| 2026-05-04 14:02 | 27.16588 | 33.80646 | 47 ft | 17 kts | 165° |
| 2026-05-04 14:02 | 27.16473 | 33.80680 | 47 ft | 18 kts | 165° |
| 2026-05-04 14:02 | 27.16349 | 33.80717 | 45 ft | 19 kts | 165° |
| 2026-05-04 14:03 | 27.16224 | 33.80754 | 41 ft | 13 kts | 165° |
| 2026-05-04 14:03 | 27.16147 | 33.80726 | 37 ft | 14 kts | 249° |
| 2026-05-04 14:03 | 27.16136 | 33.80628 | 41 ft | 12 kts | 291° |
| 2026-05-04 14:03 | 27.16233 | 33.80576 | 41 ft | 34 kts | 344° |
| 2026-05-04 14:04 | 27.17548 | 33.80195 | 123 ft | 145 kts | 347° |
| 2026-05-04 14:04 | 27.18525 | 33.79906 | 676 ft | 146 kts | 345° |
| 2026-05-04 14:04 | 27.19493 | 33.79584 | 1332 ft | 145 kts | 344° |
| 2026-05-04 14:05 | 27.21451 | 33.78927 | 2127 ft | 159 kts | 342° |
| 2026-05-04 14:05 | 27.22582 | 33.78550 | 2272 ft | 180 kts | 342° |
| 2026-05-04 14:05 | 27.23854 | 33.78129 | 2415 ft | 201 kts | 342° |
| 2026-05-04 14:06 | 27.25272 | 33.77662 | 2575 ft | 225 kts | 342° |
| 2026-05-04 14:06 | 27.26851 | 33.77143 | 2881 ft | 247 kts | 342° |
| 2026-05-04 14:06 | 27.28536 | 33.76592 | 3506 ft | 256 kts | 342° |
| 2026-05-04 14:06 | 27.30263 | 33.76031 | 4264 ft | 260 kts | 341° |
| 2026-05-04 14:07 | 27.31871 | 33.75118 | 4967 ft | 262 kts | 317° |
| 2026-05-04 14:07 | 27.32885 | 33.73433 | 5654 ft | 265 kts | 288° |
| 2026-05-04 14:07 | 27.33019 | 33.71366 | 6333 ft | 272 kts | 259° |
| 2026-05-04 14:07 | 27.32461 | 33.69316 | 7082 ft | 274 kts | 253° |
| 2026-05-04 14:08 | 27.31852 | 33.67278 | 7826 ft | 276 kts | 253° |
| 2026-05-04 14:08 | 27.31237 | 33.65229 | 8551 ft | 277 kts | 253° |
| 2026-05-04 14:08 | 27.30619 | 33.63171 | 9239 ft | 278 kts | 253° |
| 2026-05-04 14:08 | 27.30011 | 33.61136 | 9931 ft | 278 kts | 252° |
| 2026-05-04 14:09 | 27.28720 | 33.56768 | 10405 ft | 314 kts | 252° |
| 2026-05-04 14:09 | 27.28013 | 33.54374 | 10533 ft | 331 kts | 252° |
| 2026-05-04 14:10 | 27.26504 | 33.49276 | 11233 ft | 348 kts | 252° |
| 2026-05-04 14:10 | 27.25738 | 33.46683 | 11831 ft | 349 kts | 252° |
| 2026-05-04 14:10 | 27.24976 | 33.44098 | 12486 ft | 347 kts | 252° |
| 2026-05-04 14:10 | 27.24218 | 33.41529 | 13110 ft | 347 kts | 252° |
| 2026-05-04 14:11 | 27.23455 | 33.38950 | 13635 ft | 349 kts | 252° |
| 2026-05-04 14:11 | 27.22059 | 33.33695 | 14629 ft | 353 kts | 260° |
| 2026-05-04 14:11 | 27.21917 | 33.30937 | 15092 ft | 356 kts | 271° |
| 2026-05-04 14:12 | 27.22144 | 33.28152 | 15528 ft | 360 kts | 273° |
| 2026-05-04 14:12 | 27.22383 | 33.25339 | 15998 ft | 363 kts | 273° |
| 2026-05-04 14:12 | 27.22844 | 33.19674 | 16958 ft | 366 kts | 273° |
| 2026-05-04 14:13 | 27.23071 | 33.16852 | 17442 ft | 368 kts | 273° |
| 2026-05-04 14:13 | 27.23305 | 33.13977 | 17915 ft | 371 kts | 273° |
| 2026-05-04 14:13 | 27.23543 | 33.11087 | 18363 ft | 373 kts | 273° |
| 2026-05-04 14:13 | 27.23785 | 33.08177 | 18787 ft | 375 kts | 273° |
| 2026-05-04 14:14 | 27.24026 | 33.05249 | 19215 ft | 377 kts | 273° |
| 2026-05-04 14:14 | 27.24340 | 33.01376 | 19767 ft | 380 kts | 273° |
| 2026-05-04 14:14 | 27.24575 | 32.98408 | 20154 ft | 382 kts | 273° |
| 2026-05-04 14:15 | 27.25055 | 32.92432 | 20931 ft | 386 kts | 273° |
| 2026-05-04 14:15 | 27.25536 | 32.86378 | 21654 ft | 390 kts | 273° |
| 2026-05-04 14:16 | 27.26017 | 32.80270 | 22295 ft | 394 kts | 273° |
| 2026-05-04 14:16 | 27.26263 | 32.77197 | 22619 ft | 396 kts | 273° |
| 2026-05-04 14:17 | 27.26757 | 32.71019 | 23253 ft | 398 kts | 273° |
| 2026-05-04 14:17 | 27.26999 | 32.67912 | 23542 ft | 400 kts | 273° |
| 2026-05-04 14:17 | 27.27481 | 32.61646 | 24138 ft | 403 kts | 273° |
| 2026-05-04 14:18 | 27.27722 | 32.58488 | 24412 ft | 405 kts | 273° |
| 2026-05-04 14:18 | 27.28210 | 32.52150 | 24945 ft | 408 kts | 273° |
| 2026-05-04 14:19 | 27.28709 | 32.45776 | 25482 ft | 411 kts | 273° |
| 2026-05-04 14:19 | 27.28958 | 32.42573 | 25721 ft | 412 kts | 273° |
| 2026-05-04 14:19 | 27.29206 | 32.39392 | 25956 ft | 414 kts | 273° |
| 2026-05-04 14:19 | 27.29455 | 32.36160 | 26200 ft | 416 kts | 273° |
| 2026-05-04 14:20 | 27.29723 | 32.32923 | 26422 ft | 418 kts | 276° |
| 2026-05-04 14:20 | 27.30371 | 32.29725 | 26657 ft | 422 kts | 285° |
| 2026-05-04 14:20 | 27.31543 | 32.26674 | 26889 ft | 429 kts | 295° |
| 2026-05-04 14:21 | 27.35069 | 32.21163 | 27342 ft | 436 kts | 302° |
| 2026-05-04 14:21 | 27.36921 | 32.18463 | 27655 ft | 435 kts | 302° |
| 2026-05-04 14:21 | 27.38766 | 32.15774 | 27958 ft | 434 kts | 302° |
| 2026-05-04 14:21 | 27.40611 | 32.13081 | 28287 ft | 433 kts | 302° |
| 2026-05-04 14:22 | 27.42451 | 32.10395 | 28609 ft | 432 kts | 302° |
| 2026-05-04 14:22 | 27.44284 | 32.07713 | 28917 ft | 431 kts | 302° |
| 2026-05-04 14:22 | 27.46108 | 32.05041 | 29236 ft | 430 kts | 302° |
| 2026-05-04 14:22 | 27.47926 | 32.02374 | 29543 ft | 429 kts | 302° |
| 2026-05-04 14:23 | 27.51552 | 31.97054 | 30147 ft | 427 kts | 302° |
| 2026-05-04 14:23 | 27.53360 | 31.94403 | 30471 ft | 426 kts | 302° |
| 2026-05-04 14:23 | 27.55164 | 31.91758 | 30806 ft | 425 kts | 302° |
| 2026-05-04 14:24 | 27.56962 | 31.89115 | 31122 ft | 423 kts | 302° |
| 2026-05-04 14:24 | 27.58727 | 31.86524 | 31443 ft | 422 kts | 302° |
| 2026-05-04 14:24 | 27.60511 | 31.83904 | 31759 ft | 420 kts | 302° |
| 2026-05-04 14:24 | 27.62288 | 31.81293 | 32076 ft | 418 kts | 301° |
| 2026-05-04 14:25 | 27.64055 | 31.78691 | 32382 ft | 417 kts | 301° |
| 2026-05-04 14:25 | 27.67573 | 31.73510 | 32986 ft | 414 kts | 301° |
| 2026-05-04 14:25 | 27.69321 | 31.70934 | 33290 ft | 413 kts | 301° |
| 2026-05-04 14:26 | 27.71064 | 31.68365 | 33579 ft | 411 kts | 301° |
| 2026-05-04 14:26 | 27.72802 | 31.65803 | 33857 ft | 410 kts | 301° |
| 2026-05-04 14:26 | 27.74531 | 31.63250 | 34046 ft | 410 kts | 301° |
| 2026-05-04 14:26 | 27.76257 | 31.60701 | 34096 ft | 408 kts | 301° |
| 2026-05-04 14:27 | 27.79695 | 31.55613 | 34101 ft | 407 kts | 301° |
| 2026-05-04 14:27 | 27.83102 | 31.50562 | 34100 ft | 407 kts | 301° |
| 2026-05-04 14:28 | 27.86530 | 31.45475 | 34101 ft | 407 kts | 301° |
| 2026-05-04 14:28 | 27.89958 | 31.40386 | 34102 ft | 406 kts | 301° |
| 2026-05-04 14:29 | 27.96802 | 31.30205 | 34107 ft | 406 kts | 301° |
| 2026-05-04 14:30 | 28.00210 | 31.25124 | 34110 ft | 406 kts | 301° |
| 2026-05-04 14:31 | 28.05319 | 31.17494 | 34113 ft | 405 kts | 301° |
| 2026-05-04 14:32 | 28.11758 | 31.07156 | 34106 ft | 400 kts | 297° |
| 2026-05-04 14:32 | 28.14799 | 31.01863 | 34103 ft | 400 kts | 297° |
| 2026-05-04 14:33 | 28.17869 | 30.96585 | 34106 ft | 401 kts | 297° |
| 2026-05-04 14:33 | 28.20967 | 30.91330 | 34112 ft | 401 kts | 297° |
| 2026-05-04 14:34 | 28.24067 | 30.86079 | 34115 ft | 400 kts | 297° |
| 2026-05-04 14:34 | 28.27154 | 30.80830 | 34119 ft | 400 kts | 297° |
| 2026-05-04 14:35 | 28.30237 | 30.75571 | 34120 ft | 400 kts | 297° |
| 2026-05-04 14:35 | 28.33292 | 30.70340 | 34121 ft | 400 kts | 297° |
| 2026-05-04 14:36 | 28.36370 | 30.65080 | 34122 ft | 400 kts | 297° |
| 2026-05-04 14:36 | 28.39454 | 30.59814 | 34121 ft | 400 kts | 297° |
| 2026-05-04 14:37 | 28.42522 | 30.54541 | 34122 ft | 400 kts | 297° |
| 2026-05-04 14:37 | 28.45077 | 30.50158 | 34122 ft | 400 kts | 297° |
| 2026-05-04 14:38 | 28.48156 | 30.44888 | 34121 ft | 400 kts | 297° |
| 2026-05-04 14:38 | 28.51222 | 30.39613 | 34120 ft | 399 kts | 297° |
| 2026-05-04 14:39 | 28.54282 | 30.34344 | 34118 ft | 399 kts | 297° |
| 2026-05-04 14:39 | 28.57345 | 30.29066 | 34115 ft | 399 kts | 297° |
| 2026-05-04 14:40 | 28.61917 | 30.21177 | 34114 ft | 400 kts | 297° |
| 2026-05-04 14:40 | 28.64972 | 30.15899 | 34115 ft | 399 kts | 297° |
| 2026-05-04 14:41 | 28.68020 | 30.10617 | 34115 ft | 399 kts | 297° |
| 2026-05-04 14:42 | 28.74093 | 30.00079 | 34113 ft | 399 kts | 297° |
| 2026-05-04 14:42 | 28.77140 | 29.94786 | 34111 ft | 399 kts | 297° |
| 2026-05-04 14:43 | 28.80180 | 29.89498 | 34110 ft | 399 kts | 297° |
| 2026-05-04 14:43 | 28.83222 | 29.84214 | 34111 ft | 398 kts | 297° |
| 2026-05-04 14:44 | 28.86256 | 29.78924 | 34111 ft | 398 kts | 297° |
| 2026-05-04 14:44 | 28.89279 | 29.73632 | 34110 ft | 398 kts | 297° |
| 2026-05-04 14:45 | 28.92298 | 29.68341 | 34108 ft | 398 kts | 297° |
| 2026-05-04 14:45 | 28.95324 | 29.63044 | 34109 ft | 398 kts | 297° |
| 2026-05-04 14:46 | 28.98345 | 29.57751 | 34112 ft | 397 kts | 297° |
| 2026-05-04 14:46 | 29.01356 | 29.52463 | 34111 ft | 397 kts | 297° |
| 2026-05-04 14:47 | 29.04365 | 29.47168 | 34109 ft | 397 kts | 297° |
| 2026-05-04 14:47 | 29.07372 | 29.41878 | 34110 ft | 396 kts | 297° |
| 2026-05-04 14:48 | 29.10374 | 29.36591 | 34111 ft | 396 kts | 297° |
| 2026-05-04 14:48 | 29.13909 | 29.31738 | 34110 ft | 410 kts | 312° |
| 2026-05-04 14:49 | 29.18485 | 29.27737 | 34112 ft | 414 kts | 315° |
| 2026-05-04 14:49 | 29.23086 | 29.23772 | 34113 ft | 414 kts | 315° |
| 2026-05-04 14:50 | 29.27685 | 29.19797 | 34115 ft | 414 kts | 315° |
| 2026-05-04 14:50 | 29.32271 | 29.15809 | 34116 ft | 414 kts | 315° |
| 2026-05-04 14:51 | 29.36855 | 29.11819 | 34115 ft | 413 kts | 315° |
| 2026-05-04 14:51 | 29.41433 | 29.07837 | 34114 ft | 413 kts | 315° |
| 2026-05-04 14:52 | 29.46010 | 29.03841 | 34115 ft | 413 kts | 315° |
| 2026-05-04 14:52 | 29.50560 | 28.99860 | 34117 ft | 413 kts | 315° |
| 2026-05-04 14:53 | 29.55130 | 28.95857 | 34118 ft | 413 kts | 315° |
| 2026-05-04 14:53 | 29.59702 | 28.91854 | 34118 ft | 413 kts | 314° |
| 2026-05-04 14:54 | 29.64262 | 28.87846 | 34118 ft | 413 kts | 314° |
| 2026-05-04 14:54 | 29.68827 | 28.83831 | 34120 ft | 413 kts | 314° |
| 2026-05-04 14:55 | 29.73397 | 28.79827 | 34119 ft | 413 kts | 315° |
| 2026-05-04 14:55 | 29.77969 | 28.75804 | 34120 ft | 414 kts | 314° |
| 2026-05-04 14:56 | 29.82541 | 28.71756 | 34120 ft | 413 kts | 314° |
| 2026-05-04 14:56 | 29.87105 | 28.67722 | 34120 ft | 413 kts | 314° |
| 2026-05-04 14:57 | 29.91633 | 28.63718 | 34122 ft | 413 kts | 314° |
| 2026-05-04 14:57 | 29.96193 | 28.59690 | 34127 ft | 412 kts | 315° |
| 2026-05-04 14:58 | 30.00743 | 28.55657 | 34128 ft | 412 kts | 315° |
| 2026-05-04 14:58 | 30.05289 | 28.51619 | 34140 ft | 412 kts | 315° |
| 2026-05-04 14:59 | 30.09831 | 28.47595 | 34141 ft | 411 kts | 315° |
| 2026-05-04 15:00 | 30.16620 | 28.41557 | 34141 ft | 410 kts | 314° |
| 2026-05-04 15:00 | 30.21140 | 28.37526 | 34140 ft | 410 kts | 314° |
| 2026-05-04 15:01 | 30.27893 | 28.31497 | 34138 ft | 410 kts | 314° |
| 2026-05-04 15:01 | 30.32403 | 28.27466 | 34136 ft | 410 kts | 314° |
| 2026-05-04 15:02 | 30.36916 | 28.23434 | 34133 ft | 410 kts | 314° |
| 2026-05-04 15:02 | 30.41432 | 28.19394 | 34134 ft | 410 kts | 314° |
| 2026-05-04 15:03 | 30.45948 | 28.15345 | 34135 ft | 410 kts | 314° |
| 2026-05-04 15:03 | 30.50438 | 28.11316 | 34134 ft | 410 kts | 314° |
| 2026-05-04 15:04 | 30.54951 | 28.07266 | 34135 ft | 410 kts | 314° |
| 2026-05-04 15:04 | 30.59461 | 28.03217 | 34137 ft | 410 kts | 314° |
| 2026-05-04 15:05 | 30.63962 | 27.99163 | 34141 ft | 409 kts | 314° |
| 2026-05-04 15:05 | 30.68456 | 27.95098 | 34147 ft | 409 kts | 314° |
| 2026-05-04 15:06 | 30.72942 | 27.91037 | 34153 ft | 408 kts | 314° |
| 2026-05-04 15:07 | 30.79661 | 27.84961 | 34156 ft | 407 kts | 314° |
| 2026-05-04 15:07 | 30.84123 | 27.80913 | 34157 ft | 406 kts | 314° |
| 2026-05-04 15:08 | 30.88580 | 27.76869 | 34155 ft | 406 kts | 314° |
| 2026-05-04 15:08 | 30.93005 | 27.72857 | 34159 ft | 406 kts | 314° |
| 2026-05-04 15:09 | 30.97451 | 27.68818 | 34162 ft | 405 kts | 314° |
| 2026-05-04 15:09 | 31.01890 | 27.64783 | 34164 ft | 404 kts | 314° |
| 2026-05-04 15:10 | 31.08524 | 27.58726 | 34167 ft | 403 kts | 314° |
| 2026-05-04 15:11 | 31.14625 | 27.52173 | 34168 ft | 390 kts | 300° |
| 2026-05-04 15:11 | 31.17667 | 27.46938 | 34172 ft | 389 kts | 300° |
| 2026-05-04 15:12 | 31.20704 | 27.41708 | 34170 ft | 389 kts | 300° |
| 2026-05-04 15:12 | 31.23733 | 27.36480 | 34167 ft | 389 kts | 300° |
| 2026-05-04 15:13 | 31.26742 | 27.31273 | 34167 ft | 389 kts | 300° |
| 2026-05-04 15:13 | 31.29774 | 27.26041 | 34166 ft | 388 kts | 300° |
| 2026-05-04 15:14 | 31.33375 | 27.21281 | 34163 ft | 399 kts | 316° |
| 2026-05-04 15:14 | 31.38073 | 27.17681 | 34157 ft | 404 kts | 321° |
| 2026-05-04 15:15 | 31.40417 | 27.15940 | 34158 ft | 404 kts | 320° |